sensor_id;sensor_type;location;lat;lon;timestamp;pressure;altitude;pressure_sealevel;temperature;humidity
23303;BME280;11820;48.738;9.092;2023-05-10T00:00:08;95657.78;;;14.30;100.00
23303;BME280;11820;48.738;9.092;2023-05-10T00:02:34;95665.84;;;14.57;100.00
23303;BME280;11820;48.738;9.092;2023-05-10T00:05:00;95666.63;;;14.57;100.00
23303;BME280;11820;48.738;9.092;2023-05-10T00:07:25;95676.13;;;14.52;100.00
23303;BME280;11820;48.738;9.092;2023-05-10T00:09:50;95675.28;;;14.46;100.00
23303;BME280;11820;48.738;9.092;2023-05-10T00:12:16;95671.56;;;14.42;100.00
23303;BME280;11820;48.738;9.092;2023-05-10T00:14:41;95666.59;;;14.29;100.00
23303;BME280;11820;48.738;9.092;2023-05-10T00:17:07;95665.94;;;14.34;100.00
23303;BME280;11820;48.738;9.092;2023-05-10T00:19:32;95668.75;;;14.32;100.00
23303;BME280;11820;48.738;9.092;2023-05-10T00:21:57;95665.84;;;14.17;100.00
23303;BME280;11820;48.738;9.092;2023-05-10T00:24:23;95670.91;;;14.12;100.00
23303;BME280;11820;48.738;9.092;2023-05-10T00:26:48;95664.47;;;14.15;100.00
23303;BME280;11820;48.738;9.092;2023-05-10T00:29:13;95672.72;;;14.23;100.00
23303;BME280;11820;48.738;9.092;2023-05-10T00:31:38;95665.94;;;14.34;100.00
23303;BME280;11820;48.738;9.092;2023-05-10T00:34:04;95667.19;;;14.08;100.00
23303;BME280;11820;48.738;9.092;2023-05-10T00:36:29;95665.16;;;14.10;100.00
23303;BME280;11820;48.738;9.092;2023-05-10T00:38:56;95667.66;;;14.05;100.00
23303;BME280;11820;48.738;9.092;2023-05-10T00:41:21;95671.38;;;14.09;100.00
23303;BME280;11820;48.738;9.092;2023-05-10T00:43:47;95665.97;;;13.99;100.00
23303;BME280;11820;48.738;9.092;2023-05-10T00:46:14;95668.75;;;14.09;100.00
23303;BME280;11820;48.738;9.092;2023-05-10T00:48:40;95675.34;;;14.00;100.00
23303;BME280;11820;48.738;9.092;2023-05-10T00:51:06;95672.50;;;14.02;100.00
23303;BME280;11820;48.738;9.092;2023-05-10T00:53:31;95680.78;;;13.87;100.00
23303;BME280;11820;48.738;9.092;2023-05-10T00:55:58;95678.97;;;13.88;100.00
23303;BME280;11820;48.738;9.092;2023-05-10T00:58:24;95684.84;;;13.83;100.00
23303;BME280;11820;48.738;9.092;2023-05-10T01:00:54;95686.44;;;13.61;100.00
23303;BME280;11820;48.738;9.092;2023-05-10T01:03:20;95695.50;;;13.70;100.00
23303;BME280;11820;48.738;9.092;2023-05-10T01:05:46;95681.22;;;13.84;100.00
23303;BME280;11820;48.738;9.092;2023-05-10T01:08:11;95693.66;;;13.94;100.00
23303;BME280;11820;48.738;9.092;2023-05-10T01:10:36;95690.50;;;14.03;100.00
23303;BME280;11820;48.738;9.092;2023-05-10T01:13:02;95685.31;;;13.92;100.00
23303;BME280;11820;48.738;9.092;2023-05-10T01:15:28;95690.72;;;13.90;100.00
23303;BME280;11820;48.738;9.092;2023-05-10T01:17:54;95686.66;;;13.94;100.00
23303;BME280;11820;48.738;9.092;2023-05-10T01:20:20;95681.56;;;14.11;100.00
23303;BME280;11820;48.738;9.092;2023-05-10T01:26:19;95699.66;;;14.17;100.00
23303;BME280;11820;48.738;9.092;2023-05-10T01:34:25;95711.75;;;14.00;100.00
23303;BME280;11820;48.738;9.092;2023-05-10T01:36:58;95704.97;;;13.99;100.00
23303;BME280;11820;48.738;9.092;2023-05-10T01:39:25;95708.31;;;14.11;100.00
23303;BME280;11820;48.738;9.092;2023-05-10T01:42:21;95707.22;;;14.07;100.00
23303;BME280;11820;48.738;9.092;2023-05-10T01:47:58;95724.94;;;14.10;100.00
23303;BME280;11820;48.738;9.092;2023-05-10T01:50:27;95719.75;;;14.22;100.00
23303;BME280;11820;48.738;9.092;2023-05-10T01:52:56;95718.16;;;14.09;100.00
23303;BME280;11820;48.738;9.092;2023-05-10T01:55:24;95713.53;;;14.11;100.00
23303;BME280;11820;48.738;9.092;2023-05-10T01:57:55;95719.09;;;14.03;100.00
23303;BME280;11820;48.738;9.092;2023-05-10T02:00:24;95721.03;;;13.96;100.00
23303;BME280;11820;48.738;9.092;2023-05-10T02:02:50;95721.69;;;14.03;100.00
23303;BME280;11820;48.738;9.092;2023-05-10T02:05:18;95726.66;;;14.05;100.00
23303;BME280;11820;48.738;9.092;2023-05-10T02:07:44;95725.75;;;13.99;100.00
23303;BME280;11820;48.738;9.092;2023-05-10T02:10:11;95723.94;;;13.88;100.00
23303;BME280;11820;48.738;9.092;2023-05-10T02:12:41;95727.81;;;13.97;100.00
23303;BME280;11820;48.738;9.092;2023-05-10T02:15:07;95727.34;;;14.00;100.00
23303;BME280;11820;48.738;9.092;2023-05-10T02:17:35;95725.75;;;13.99;100.00
23303;BME280;11820;48.738;9.092;2023-05-10T02:20:03;95727.69;;;13.81;100.00
23303;BME280;11820;48.738;9.092;2023-05-10T02:22:30;95730.63;;;13.84;100.00
23303;BME280;11820;48.738;9.092;2023-05-10T02:24:57;95725.75;;;13.76;100.00
23303;BME280;11820;48.738;9.092;2023-05-10T02:27:25;95740.69;;;13.92;100.00
23303;BME280;11820;48.738;9.092;2023-05-10T02:29:53;95734.91;;;14.02;100.00
23303;BME280;11820;48.738;9.092;2023-05-10T02:32:19;95739.06;;;14.03;100.00
23303;BME280;11820;48.738;9.092;2023-05-10T02:34:44;95746.66;;;14.04;100.00
23303;BME280;11820;48.738;9.092;2023-05-10T02:37:13;95752.44;;;13.83;100.00
23303;BME280;11820;48.738;9.092;2023-05-10T02:39:40;95748.50;;;13.92;100.00
23303;BME280;11820;48.738;9.092;2023-05-10T02:42:11;95751.41;;;14.07;100.00
23303;BME280;11820;48.738;9.092;2023-05-10T02:44:41;95753.56;;;13.99;100.00
23303;BME280;11820;48.738;9.092;2023-05-10T02:47:07;95753.56;;;14.10;100.00
23303;BME280;11820;48.738;9.092;2023-05-10T02:49:33;95753.56;;;13.99;100.00
23303;BME280;11820;48.738;9.092;2023-05-10T02:52:00;95759.00;;;13.97;100.00
23303;BME280;11820;48.738;9.092;2023-05-10T02:54:32;95754.47;;;13.93;100.00
23303;BME280;11820;48.738;9.092;2023-05-10T02:56:58;95751.53;;;13.89;100.00
23303;BME280;11820;48.738;9.092;2023-05-10T02:59:26;95756.28;;;13.92;100.00
23303;BME280;11820;48.738;9.092;2023-05-10T03:01:51;95756.50;;;13.91;100.00
23303;BME280;11820;48.738;9.092;2023-05-10T03:04:17;95746.66;;;13.93;100.00
23303;BME280;11820;48.738;9.092;2023-05-10T03:06:42;95756.41;;;13.97;100.00
23303;BME280;11820;48.738;9.092;2023-05-10T03:09:08;95764.41;;;13.84;100.00
23303;BME280;11820;48.738;9.092;2023-05-10T03:12:01;95768.69;;;13.67;100.00
23303;BME280;11820;48.738;9.092;2023-05-10T03:20:10;95769.72;;;13.89;100.00
23303;BME280;11820;48.738;9.092;2023-05-10T03:22:46;95769.84;;;13.71;100.00
23303;BME280;11820;48.738;9.092;2023-05-10T03:25:15;95767.34;;;13.76;100.00
23303;BME280;11820;48.738;9.092;2023-05-10T03:27:43;95767.91;;;13.78;100.00
23303;BME280;11820;48.738;9.092;2023-05-10T03:30:10;95772.31;;;13.66;100.00
23303;BME280;11820;48.738;9.092;2023-05-10T03:32:36;95773.19;;;13.60;100.00
23303;BME280;11820;48.738;9.092;2023-05-10T03:35:20;95779.09;;;13.67;100.00
23303;BME280;11820;48.738;9.092;2023-05-10T03:37:45;95774.81;;;13.84;100.00
23303;BME280;11820;48.738;9.092;2023-05-10T03:40:11;95778.75;;;13.64;100.00
23303;BME280;11820;48.738;9.092;2023-05-10T03:42:37;95780.00;;;13.84;100.00
23303;BME280;11820;48.738;9.092;2023-05-10T03:45:02;95771.53;;;13.89;100.00
23303;BME280;11820;48.738;9.092;2023-05-10T03:47:28;95775.72;;;13.78;100.00
23303;BME280;11820;48.738;9.092;2023-05-10T03:49:54;95782.47;;;13.79;100.00
23303;BME280;11820;48.738;9.092;2023-05-10T03:52:20;95786.44;;;13.70;100.00
23303;BME280;11820;48.738;9.092;2023-05-10T03:54:45;95799.66;;;13.80;100.00
23303;BME280;11820;48.738;9.092;2023-05-10T03:57:10;95785.53;;;13.65;100.00
23303;BME280;11820;48.738;9.092;2023-05-10T03:59:36;95796.56;;;13.60;100.00
23303;BME280;11820;48.738;9.092;2023-05-10T04:02:01;95792.66;;;13.69;100.00
23303;BME280;11820;48.738;9.092;2023-05-10T04:04:26;95780.69;;;13.68;100.00
23303;BME280;11820;48.738;9.092;2023-05-10T04:06:52;95783.84;;;13.70;100.00
23303;BME280;11820;48.738;9.092;2023-05-10T04:09:17;95785.66;;;13.81;100.00
23303;BME280;11820;48.738;9.092;2023-05-10T04:11:42;95784.31;;;13.79;100.00
23303;BME280;11820;48.738;9.092;2023-05-10T04:14:08;95785.88;;;13.68;100.00
23303;BME280;11820;48.738;9.092;2023-05-10T04:16:33;95785.44;;;13.71;100.00
23303;BME280;11820;48.738;9.092;2023-05-10T04:18:59;95789.69;;;13.54;100.00
23303;BME280;11820;48.738;9.092;2023-05-10T04:21:25;95787.97;;;13.48;100.00
23303;BME280;11820;48.738;9.092;2023-05-10T04:23:50;95797.59;;;13.59;100.00
23303;BME280;11820;48.738;9.092;2023-05-10T04:26:15;95797.56;;;13.48;100.00
23303;BME280;11820;48.738;9.092;2023-05-10T04:28:41;95796.91;;;13.52;100.00
23303;BME280;11820;48.738;9.092;2023-05-10T04:31:08;95799.16;;;13.60;100.00
23303;BME280;11820;48.738;9.092;2023-05-10T04:33:34;95792.66;;;13.69;100.00
23303;BME280;11820;48.738;9.092;2023-05-10T04:36:00;95801.41;;;13.45;100.00
23303;BME280;11820;48.738;9.092;2023-05-10T04:38:26;95795.66;;;13.43;100.00
23303;BME280;11820;48.738;9.092;2023-05-10T04:40:52;95801.28;;;13.52;100.00
23303;BME280;11820;48.738;9.092;2023-05-10T04:43:18;95799.75;;;13.62;100.00
23303;BME280;11820;48.738;9.092;2023-05-10T04:45:43;95798.53;;;13.76;100.00
23303;BME280;11820;48.738;9.092;2023-05-10T04:48:08;95792.66;;;13.69;100.00
23303;BME280;11820;48.738;9.092;2023-05-10T04:50:34;95803.59;;;13.60;100.00
23303;BME280;11820;48.738;9.092;2023-05-10T04:52:59;95798.19;;;13.73;100.00
23303;BME280;11820;48.738;9.092;2023-05-10T04:55:25;95799.88;;;13.67;100.00
23303;BME280;11820;48.738;9.092;2023-05-10T04:57:51;95813.88;;;13.66;100.00
23303;BME280;11820;48.738;9.092;2023-05-10T05:00:17;95813.28;;;13.64;100.00
23303;BME280;11820;48.738;9.092;2023-05-10T05:02:43;95810.91;;;13.51;100.00
23303;BME280;11820;48.738;9.092;2023-05-10T05:05:12;95807.69;;;13.67;100.00
23303;BME280;11820;48.738;9.092;2023-05-10T05:07:37;95809.28;;;13.80;100.00
23303;BME280;11820;48.738;9.092;2023-05-10T05:10:07;95807.94;;;13.89;100.00
23303;BME280;11820;48.738;9.092;2023-05-10T05:12:33;95808.59;;;13.84;100.00
23303;BME280;11820;48.738;9.092;2023-05-10T05:14:58;95809.84;;;13.82;100.00
23303;BME280;11820;48.738;9.092;2023-05-10T05:17:23;95809.16;;;13.86;100.00
23303;BME280;11820;48.738;9.092;2023-05-10T05:19:49;95822.13;;;13.75;100.00
23303;BME280;11820;48.738;9.092;2023-05-10T05:22:14;95812.78;;;13.85;100.00
23303;BME280;11820;48.738;9.092;2023-05-10T05:24:39;95813.69;;;13.79;100.00
23303;BME280;11820;48.738;9.092;2023-05-10T05:27:05;95817.09;;;13.91;100.00
23303;BME280;11820;48.738;9.092;2023-05-10T05:29:31;95818.69;;;13.92;100.00
23303;BME280;11820;48.738;9.092;2023-05-10T05:31:56;95820.34;;;13.87;100.00
23303;BME280;11820;48.738;9.092;2023-05-10T05:34:21;95816.75;;;13.99;100.00
23303;BME280;11820;48.738;9.092;2023-05-10T05:36:47;95821.03;;;14.05;100.00
23303;BME280;11820;48.738;9.092;2023-05-10T05:39:13;95828.28;;;13.92;100.00
23303;BME280;11820;48.738;9.092;2023-05-10T05:41:38;95828.94;;;13.99;100.00
23303;BME280;11820;48.738;9.092;2023-05-10T05:44:03;95827.47;;;14.14;100.00
23303;BME280;11820;48.738;9.092;2023-05-10T05:46:29;95834.31;;;14.27;100.00
23303;BME280;11820;48.738;9.092;2023-05-10T05:48:54;95834.66;;;14.30;100.00
23303;BME280;11820;48.738;9.092;2023-05-10T05:51:19;95834.53;;;14.25;100.00
23303;BME280;11820;48.738;9.092;2023-05-10T05:53:45;95840.41;;;14.32;100.00
23303;BME280;11820;48.738;9.092;2023-05-10T05:56:10;95835.66;;;14.29;100.00
23303;BME280;11820;48.738;9.092;2023-05-10T05:58:35;95848.47;;;14.42;100.00
23303;BME280;11820;48.738;9.092;2023-05-10T06:01:01;95837.81;;;14.44;100.00
23303;BME280;11820;48.738;9.092;2023-05-10T06:03:26;95847.00;;;14.35;100.00
23303;BME280;11820;48.738;9.092;2023-05-10T06:05:51;95839.28;;;14.51;100.00
23303;BME280;11820;48.738;9.092;2023-05-10T06:08:17;95850.47;;;14.52;100.00
23303;BME280;11820;48.738;9.092;2023-05-10T06:10:42;95849.69;;;14.51;100.00
23303;BME280;11820;48.738;9.092;2023-05-10T06:13:07;95850.59;;;14.45;100.00
23303;BME280;11820;48.738;9.092;2023-05-10T06:15:33;95856.13;;;14.37;100.00
23303;BME280;11820;48.738;9.092;2023-05-10T06:17:58;95858.72;;;14.26;100.00
23303;BME280;11820;48.738;9.092;2023-05-10T06:20:23;95864.50;;;14.39;100.00
23303;BME280;11820;48.738;9.092;2023-05-10T06:22:49;95863.38;;;14.35;100.00
23303;BME280;11820;48.738;9.092;2023-05-10T06:25:14;95860.19;;;14.56;100.00
23303;BME280;11820;48.738;9.092;2023-05-10T06:27:40;95862.34;;;14.36;100.00
23303;BME280;11820;48.738;9.092;2023-05-10T06:30:05;95867.81;;;14.46;100.00
23303;BME280;11820;48.738;9.092;2023-05-10T06:32:31;95868.47;;;14.53;100.00
23303;BME280;11820;48.738;9.092;2023-05-10T06:34:56;95879.09;;;14.63;100.00
23303;BME280;11820;48.738;9.092;2023-05-10T06:37:22;95874.78;;;14.57;100.00
23303;BME280;11820;48.738;9.092;2023-05-10T06:39:47;95878.41;;;14.56;100.00
23303;BME280;11820;48.738;9.092;2023-05-10T06:42:12;95877.28;;;14.29;100.00
23303;BME280;11820;48.738;9.092;2023-05-10T06:44:38;95884.06;;;14.42;100.00
23303;BME280;11820;48.738;9.092;2023-05-10T06:47:03;95873.22;;;14.56;100.00
23303;BME280;11820;48.738;9.092;2023-05-10T06:49:28;95877.50;;;14.51;100.00
23303;BME280;11820;48.738;9.092;2023-05-10T06:51:55;95874.13;;;14.50;100.00
23303;BME280;11820;48.738;9.092;2023-05-10T06:54:20;95874.34;;;14.37;100.00
23303;BME280;11820;48.738;9.092;2023-05-10T06:56:46;95879.22;;;14.45;100.00
23303;BME280;11820;48.738;9.092;2023-05-10T06:59:11;95872.09;;;14.63;100.00
23303;BME280;11820;48.738;9.092;2023-05-10T07:01:38;95866.06;;;14.63;100.00
23303;BME280;11820;48.738;9.092;2023-05-10T07:04:03;95870.16;;;14.70;100.00
23303;BME280;11820;48.738;9.092;2023-05-10T07:06:29;95875.59;;;14.69;100.00
23303;BME280;11820;48.738;9.092;2023-05-10T07:08:54;95870.03;;;14.77;100.00
23303;BME280;11820;48.738;9.092;2023-05-10T07:11:20;95877.38;;;14.68;100.00
23303;BME280;11820;48.738;9.092;2023-05-10T07:13:45;95878.31;;;14.74;100.00
23303;BME280;11820;48.738;9.092;2023-05-10T07:16:11;95879.13;;;15.02;100.00
23303;BME280;11820;48.738;9.092;2023-05-10T07:18:36;95879.78;;;14.81;100.00
23303;BME280;11820;48.738;9.092;2023-05-10T07:21:02;95883.50;;;14.63;100.00
23303;BME280;11820;48.738;9.092;2023-05-10T07:23:28;95885.75;;;14.82;100.00
23303;BME280;11820;48.738;9.092;2023-05-10T07:25:53;95878.88;;;14.76;100.00
23303;BME280;11820;48.738;9.092;2023-05-10T07:28:19;95889.94;;;14.83;100.00
23303;BME280;11820;48.738;9.092;2023-05-10T07:30:44;95885.84;;;14.87;100.00
23303;BME280;11820;48.738;9.092;2023-05-10T07:33:12;95882.00;;;15.01;100.00
23303;BME280;11820;48.738;9.092;2023-05-10T07:35:38;95887.84;;;15.08;100.00
23303;BME280;11820;48.738;9.092;2023-05-10T07:38:03;95884.59;;;15.01;100.00
23303;BME280;11820;48.738;9.092;2023-05-10T07:40:29;95884.22;;;15.09;100.00
23303;BME280;11820;48.738;9.092;2023-05-10T07:42:54;95889.16;;;14.94;100.00
23303;BME280;11820;48.738;9.092;2023-05-10T07:45:20;95896.03;;;15.00;100.00
23303;BME280;11820;48.738;9.092;2023-05-10T07:47:45;95900.78;;;15.03;100.00
23303;BME280;11820;48.738;9.092;2023-05-10T07:50:10;95900.78;;;15.03;100.00
23303;BME280;11820;48.738;9.092;2023-05-10T07:52:36;95896.81;;;15.00;100.00
23303;BME280;11820;48.738;9.092;2023-05-10T07:55:01;95909.72;;;14.95;100.00
23303;BME280;11820;48.738;9.092;2023-05-10T07:57:26;95912.13;;;14.97;100.00
23303;BME280;11820;48.738;9.092;2023-05-10T07:59:52;95907.09;;;15.07;100.00
23303;BME280;11820;48.738;9.092;2023-05-10T08:02:17;95901.66;;;15.20;100.00
23303;BME280;11820;48.738;9.092;2023-05-10T08:04:42;95903.03;;;15.11;100.00
23303;BME280;11820;48.738;9.092;2023-05-10T08:07:07;95903.09;;;15.27;100.00
23303;BME280;11820;48.738;9.092;2023-05-10T08:09:33;95908.44;;;15.21;100.00
23303;BME280;11820;48.738;9.092;2023-05-10T08:11:58;95912.88;;;15.09;100.00
23303;BME280;11820;48.738;9.092;2023-05-10T08:14:25;95912.63;;;15.22;100.00
23303;BME280;11820;48.738;9.092;2023-05-10T08:16:50;95909.69;;;15.30;100.00
23303;BME280;11820;48.738;9.092;2023-05-10T08:19:16;95914.91;;;15.30;100.00
23303;BME280;11820;48.738;9.092;2023-05-10T08:21:44;95908.53;;;15.26;100.00
23303;BME280;11820;48.738;9.092;2023-05-10T08:24:09;95917.28;;;15.20;100.00
23303;BME280;11820;48.738;9.092;2023-05-10T08:26:35;95915.00;;;15.35;100.00
23303;BME280;11820;48.738;9.092;2023-05-10T08:29:00;95921.31;;;15.39;100.00
23303;BME280;11820;48.738;9.092;2023-05-10T08:31:25;95921.78;;;15.36;100.00
23303;BME280;11820;48.738;9.092;2023-05-10T08:33:51;95920.44;;;15.22;100.00
23303;BME280;11820;48.738;9.092;2023-05-10T08:36:17;95921.56;;;15.26;100.00
23303;BME280;11820;48.738;9.092;2023-05-10T08:38:47;95919.09;;;15.31;100.00
23303;BME280;11820;48.738;9.092;2023-05-10T08:41:13;95928.94;;;15.29;100.00
23303;BME280;11820;48.738;9.092;2023-05-10T08:43:38;95917.81;;;15.45;100.00
23303;BME280;11820;48.738;9.092;2023-05-10T08:46:07;95918.28;;;15.70;100.00
23303;BME280;11820;48.738;9.092;2023-05-10T08:48:34;95928.88;;;15.52;100.00
23303;BME280;11820;48.738;9.092;2023-05-10T08:51:01;95923.59;;;15.47;100.00
23303;BME280;11820;48.738;9.092;2023-05-10T08:53:29;95936.34;;;15.60;100.00
23303;BME280;11820;48.738;9.092;2023-05-10T08:55:56;95933.78;;;15.37;100.00
23303;BME280;11820;48.738;9.092;2023-05-10T08:58:22;95933.44;;;15.45;100.00
23303;BME280;11820;48.738;9.092;2023-05-10T09:00:48;95938.34;;;15.30;100.00
23303;BME280;11820;48.738;9.092;2023-05-10T09:03:16;95944.03;;;15.66;100.00
23303;BME280;11820;48.738;9.092;2023-05-10T09:05:41;95940.25;;;15.74;100.00
23303;BME280;11820;48.738;9.092;2023-05-10T09:08:08;95945.84;;;15.54;100.00
23303;BME280;11820;48.738;9.092;2023-05-10T09:10:33;95944.59;;;15.68;100.00
23303;BME280;11820;48.738;9.092;2023-05-10T09:12:59;95956.22;;;15.38;100.00
23303;BME280;11820;48.738;9.092;2023-05-10T09:15:24;95954.56;;;15.09;100.00
23303;BME280;11820;48.738;9.092;2023-05-10T09:17:50;95951.72;;;15.22;100.00
23303;BME280;11820;48.738;9.092;2023-05-10T09:20:15;95961.13;;;15.23;100.00
23303;BME280;11820;48.738;9.092;2023-05-10T09:22:42;95958.72;;;15.33;100.00
23303;BME280;11820;48.738;9.092;2023-05-10T09:25:10;95967.66;;;15.14;100.00
23303;BME280;11820;48.738;9.092;2023-05-10T09:27:39;95961.19;;;15.51;100.00
23303;BME280;11820;48.738;9.092;2023-05-10T09:30:06;95956.56;;;15.41;100.00
23303;BME280;11820;48.738;9.092;2023-05-10T09:32:46;95952.69;;;15.44;100.00
23303;BME280;11820;48.738;9.092;2023-05-10T09:35:16;95957.22;;;15.48;100.00
23303;BME280;11820;48.738;9.092;2023-05-10T09:37:43;95960.59;;;15.60;100.00
23303;BME280;11820;48.738;9.092;2023-05-10T09:40:17;95951.25;;;15.76;100.00
23303;BME280;11820;48.738;9.092;2023-05-10T09:42:54;95965.41;;;15.40;100.00
23303;BME280;11820;48.738;9.092;2023-05-10T09:45:20;95966.81;;;15.71;100.00
23303;BME280;11820;48.738;9.092;2023-05-10T09:47:46;95961.63;;;15.87;100.00
23303;BME280;11820;48.738;9.092;2023-05-10T09:50:12;95961.47;;;15.94;100.00
23303;BME280;11820;48.738;9.092;2023-05-10T09:52:57;95959.84;;;16.21;100.00
23303;BME280;11820;48.738;9.092;2023-05-10T09:55:38;95966.41;;;16.07;100.00
23303;BME280;11820;48.738;9.092;2023-05-10T09:58:03;95962.16;;;16.17;100.00
23303;BME280;11820;48.738;9.092;2023-05-10T10:00:38;95958.97;;;15.99;100.00
23303;BME280;11820;48.738;9.092;2023-05-10T10:03:03;95962.28;;;15.94;100.00
23303;BME280;11820;48.738;9.092;2023-05-10T10:05:29;95962.19;;;15.89;100.00
23303;BME280;11820;48.738;9.092;2023-05-10T10:07:56;95962.88;;;15.85;100.00
23303;BME280;11820;48.738;9.092;2023-05-10T10:10:24;95964.97;;;15.71;100.00
23303;BME280;11820;48.738;9.092;2023-05-10T10:12:49;95960.56;;;16.00;100.00
23303;BME280;11820;48.738;9.092;2023-05-10T10:15:15;95964.59;;;16.35;100.00
23303;BME280;11820;48.738;9.092;2023-05-10T10:17:42;95961.34;;;16.44;100.00
23303;BME280;11820;48.738;9.092;2023-05-10T10:20:08;95954.72;;;16.37;100.00
23303;BME280;11820;48.738;9.092;2023-05-10T10:22:34;95966.03;;;16.59;100.00
23303;BME280;11820;48.738;9.092;2023-05-10T10:25:00;95962.88;;;16.73;100.00
23303;BME280;11820;48.738;9.092;2023-05-10T10:27:41;95962.94;;;16.78;100.00
23303;BME280;11820;48.738;9.092;2023-05-10T10:30:30;95957.78;;;16.83;100.00
23303;BME280;11820;48.738;9.092;2023-05-10T10:35:46;95965.81;;;17.15;100.00
23303;BME280;11820;48.738;9.092;2023-05-10T10:38:14;95960.38;;;17.00;100.00
23303;BME280;11820;48.738;9.092;2023-05-10T10:40:40;95956.19;;;16.82;100.00
23303;BME280;11820;48.738;9.092;2023-05-10T10:43:25;95959.81;;;16.98;100.00
23303;BME280;11820;48.738;9.092;2023-05-10T10:46:11;95966.28;;;17.12;100.00
23303;BME280;11820;48.738;9.092;2023-05-10T10:48:47;95975.13;;;16.12;100.00
23303;BME280;11820;48.738;9.092;2023-05-10T10:51:13;95973.50;;;15.55;100.00
23303;BME280;11820;48.738;9.092;2023-05-10T10:53:39;95982.16;;;15.84;100.00
23303;BME280;11820;48.738;9.092;2023-05-10T10:56:07;95980.09;;;15.86;100.00
23303;BME280;11820;48.738;9.092;2023-05-10T10:58:34;95986.13;;;15.47;100.00
23303;BME280;11820;48.738;9.092;2023-05-10T11:01:19;95977.34;;;15.64;100.00
23303;BME280;11820;48.738;9.092;2023-05-10T11:04:17;95983.91;;;15.67;100.00
23303;BME280;11820;48.738;9.092;2023-05-10T11:06:42;95993.91;;;15.70;100.00
23303;BME280;11820;48.738;9.092;2023-05-10T11:09:09;95989.25;;;15.72;100.00
23303;BME280;11820;48.738;9.092;2023-05-10T11:11:35;95997.25;;;15.31;100.00
23303;BME280;11820;48.738;9.092;2023-05-10T11:14:06;95985.50;;;15.56;100.00
23303;BME280;11820;48.738;9.092;2023-05-10T11:16:42;95986.41;;;15.62;100.00
23303;BME280;11820;48.738;9.092;2023-05-10T11:19:10;95984.44;;;15.41;100.00
23303;BME280;11820;48.738;9.092;2023-05-10T11:21:45;95982.56;;;15.64;100.00
23303;BME280;11820;48.738;9.092;2023-05-10T11:24:22;95988.53;;;15.76;100.00
23303;BME280;11820;48.738;9.092;2023-05-10T11:26:50;95988.97;;;15.85;100.00
23303;BME280;11820;48.738;9.092;2023-05-10T11:29:16;95991.06;;;15.60;100.00
23303;BME280;11820;48.738;9.092;2023-05-10T11:31:43;95999.19;;;15.35;100.00
23303;BME280;11820;48.738;9.092;2023-05-10T11:34:10;95990.09;;;15.26;100.00
23303;BME280;11820;48.738;9.092;2023-05-10T11:36:36;96002.66;;;15.41;100.00
23303;BME280;11820;48.738;9.092;2023-05-10T11:39:02;96004.72;;;15.39;100.00
23303;BME280;11820;48.738;9.092;2023-05-10T11:41:29;96000.53;;;15.38;100.00
23303;BME280;11820;48.738;9.092;2023-05-10T11:43:56;95997.16;;;15.77;100.00
23303;BME280;11820;48.738;9.092;2023-05-10T11:46:23;95996.88;;;15.50;100.00
23303;BME280;11820;48.738;9.092;2023-05-10T11:48:51;96004.34;;;15.58;100.00
23303;BME280;11820;48.738;9.092;2023-05-10T11:51:20;96007.88;;;15.41;100.00
23303;BME280;11820;48.738;9.092;2023-05-10T11:53:46;95999.31;;;16.08;100.00
23303;BME280;11820;48.738;9.092;2023-05-10T11:56:11;96012.13;;;16.37;100.00
23303;BME280;11820;48.738;9.092;2023-05-10T11:58:39;96008.81;;;16.30;100.00
23303;BME280;11820;48.738;9.092;2023-05-10T12:01:05;96005.81;;;16.49;100.00
23303;BME280;11820;48.738;9.092;2023-05-10T12:03:31;96011.41;;;16.41;100.00
23303;BME280;11820;48.738;9.092;2023-05-10T12:05:57;96009.09;;;17.27;100.00
23303;BME280;11820;48.738;9.092;2023-05-10T12:08:24;96005.91;;;16.87;100.00
23303;BME280;11820;48.738;9.092;2023-05-10T12:10:50;96016.06;;;17.38;100.00
23303;BME280;11820;48.738;9.092;2023-05-10T12:13:17;96016.69;;;16.74;100.00
23303;BME280;11820;48.738;9.092;2023-05-10T12:15:43;96016.63;;;16.14;100.00
23303;BME280;11820;48.738;9.092;2023-05-10T12:18:12;96030.97;;;15.72;100.00
23303;BME280;11820;48.738;9.092;2023-05-10T12:20:39;96022.56;;;16.09;100.00
23303;BME280;11820;48.738;9.092;2023-05-10T12:23:04;96022.94;;;16.18;100.00
23303;BME280;11820;48.738;9.092;2023-05-10T12:25:32;96031.06;;;16.05;100.00
23303;BME280;11820;48.738;9.092;2023-05-10T12:27:58;96018.63;;;16.23;100.00
23303;BME280;11820;48.738;9.092;2023-05-10T12:30:29;96030.78;;;16.18;100.00
23303;BME280;11820;48.738;9.092;2023-05-10T12:33:00;96024.19;;;15.99;100.00
23303;BME280;11820;48.738;9.092;2023-05-10T12:35:26;96025.34;;;15.91;100.00
23303;BME280;11820;48.738;9.092;2023-05-10T12:37:51;96024.44;;;15.86;100.00
23303;BME280;11820;48.738;9.092;2023-05-10T12:40:16;96023.13;;;15.72;100.00
23303;BME280;11820;48.738;9.092;2023-05-10T12:42:42;96021.34;;;15.61;100.00
23303;BME280;11820;48.738;9.092;2023-05-10T12:45:08;96033.25;;;15.57;100.00
23303;BME280;11820;48.738;9.092;2023-05-10T12:47:34;96029.19;;;15.38;100.00
23303;BME280;11820;48.738;9.092;2023-05-10T12:50:00;96031.91;;;15.43;100.00
23303;BME280;11820;48.738;9.092;2023-05-10T12:52:26;96037.00;;;15.49;100.00
23303;BME280;11820;48.738;9.092;2023-05-10T12:54:52;96034.28;;;15.56;100.00
23303;BME280;11820;48.738;9.092;2023-05-10T12:57:18;96031.38;;;15.69;100.00
23303;BME280;11820;48.738;9.092;2023-05-10T12:59:43;96028.22;;;15.67;100.00
23303;BME280;11820;48.738;9.092;2023-05-10T13:02:08;96025.56;;;15.90;100.00
23303;BME280;11820;48.738;9.092;2023-05-10T13:04:34;96022.94;;;15.90;100.00
23303;BME280;11820;48.738;9.092;2023-05-10T13:06:59;96026.13;;;15.92;100.00
23303;BME280;11820;48.738;9.092;2023-05-10T13:09:26;96028.09;;;16.13;100.00